Harts, West Virginia
Current Conditions -  °F | °C
As of 1:51 PM on Thursday 30 Oct 2014 (Local Time) from KHTS Reporting Station
Overcast Overcast  
Wind Chill: 47°   Ceiling: 4000
Heat Index: 49°   Visibility: 10mi
Dew Point: 35°   Wind: 6mph
Humidity: 59%   Direction: 350°N
Pressure: 30.12"   Gusts: NA
Location:  38.03°N, 82.13°W
Report Text: KHTS 301751Z 35005KT 10SM OVC040 09/02 A3012 RMK AO2 SLP199 T00940017 10094 20028 58014
Loading
Personal Weather Stations






























Interactive Weather Map
Tropical Storm Tracking
New forecast layout! Learn more

10-Day Weather Forecast

Advertisements
Track Severe Weather on mobile